createdAt,value
2022-10-05T00:00:26.686Z,100925.20
2022-10-05T00:03:21.227Z,100920.54
2022-10-05T00:05:55.265Z,100924.89
2022-10-05T00:08:34.865Z,100921.88
2022-10-05T00:11:10.047Z,100920.45
2022-10-05T00:13:44.005Z,100921.66
2022-10-05T00:16:20.633Z,100917.91
2022-10-05T00:18:55.527Z,100920.40
2022-10-05T00:21:30.580Z,100921.58
2022-10-05T00:24:08.870Z,100920.70
2022-10-05T00:26:42.322Z,100914.43
2022-10-05T00:29:22.648Z,100910.76
2022-10-05T00:31:56.942Z,100904.76
2022-10-05T00:34:34.941Z,100902.81
2022-10-05T00:37:09.426Z,100899.16
2022-10-05T00:39:44.023Z,100903.80
2022-10-05T00:42:44.860Z,100903.14
2022-10-05T00:45:23.272Z,100905.33
2022-10-05T00:48:07.893Z,100908.08
2022-10-05T00:50:57.043Z,100910.89
2022-10-05T00:53:45.382Z,100913.65
2022-10-05T00:56:34.664Z,100918.95
2022-10-05T00:59:20.903Z,100920.20
2022-10-05T01:02:01.763Z,100920.70
2022-10-05T01:04:44.743Z,100918.27
2022-10-05T01:07:28.265Z,100914.95
2022-10-05T01:10:09.822Z,100907.90
2022-10-05T01:12:51.445Z,100912.55
2022-10-05T01:15:32.399Z,100912.09
2022-10-05T01:18:39.427Z,100913.50
2022-10-05T01:21:21.223Z,100920.67
2022-10-05T01:24:09.540Z,100924.67
2022-10-05T01:27:23.418Z,100920.69
2022-10-05T01:30:03.129Z,100913.94
2022-10-05T01:32:43.649Z,100914.65
2022-10-05T01:35:40.999Z,100917.84
2022-10-05T01:38:30.657Z,100914.66
2022-10-05T01:41:13.557Z,100912.56
2022-10-05T01:43:51.167Z,100905.85
2022-10-05T01:46:33.602Z,100901.16
2022-10-05T01:49:25.606Z,100896.23
2022-10-05T01:52:10.672Z,100909.70
2022-10-05T01:54:59.492Z,100928.74
2022-10-05T01:57:45.483Z,100925.55
2022-10-05T02:00:21.472Z,100921.02
2022-10-05T02:03:03.463Z,100924.38
2022-10-05T02:05:46.453Z,100926.36
2022-10-05T02:08:28.991Z,100928.63
2022-10-05T02:11:07.828Z,100922.93
2022-10-05T02:13:45.287Z,100909.77
2022-10-05T02:16:25.318Z,100907.16
2022-10-05T02:19:04.116Z,100902.80
2022-10-05T02:21:38.219Z,100898.89
2022-10-05T02:24:15.513Z,100894.05
2022-10-05T02:26:50.379Z,100884.60
2022-10-05T02:29:26.172Z,100866.98
2022-10-05T02:32:03.456Z,100857.52
2022-10-05T02:34:41.869Z,100852.67
2022-10-05T02:37:26.940Z,100873.36
2022-10-05T02:40:25.283Z,100872.98
2022-10-05T02:43:08.576Z,100879.19
2022-10-05T02:45:52.619Z,100873.29
2022-10-05T02:48:35.843Z,100861.21
2022-10-05T02:51:18.053Z,100869.27
2022-10-05T02:54:02.957Z,100870.84
2022-10-05T02:56:45.119Z,100886.16
2022-10-05T02:59:27.587Z,100882.77
2022-10-05T03:02:09.175Z,100875.08
2022-10-05T03:04:50.352Z,100883.48
2022-10-05T03:07:31.327Z,100889.42
2022-10-05T03:10:11.522Z,100894.36
2022-10-05T03:13:02.585Z,100903.43
2022-10-05T03:16:02.040Z,100898.30
2022-10-05T03:18:50.455Z,100896.30
2022-10-05T03:21:41.180Z,100895.28
2022-10-05T03:24:41.653Z,100900.50
2022-10-05T03:27:25.507Z,100907.83
2022-10-05T03:30:05.087Z,100916.29
2022-10-05T03:32:51.671Z,100913.08
2022-10-05T03:35:30.242Z,100905.63
2022-10-05T03:38:13.800Z,100906.84
2022-10-05T03:40:56.145Z,100901.63
2022-10-05T03:44:01.260Z,100901.73
2022-10-05T03:46:50.496Z,100891.67
2022-10-05T03:49:34.145Z,100879.27
2022-10-05T03:52:14.301Z,100877.25
2022-10-05T03:54:50.578Z,100885.84
2022-10-05T03:57:26.401Z,100888.23
2022-10-05T04:00:05.153Z,100888.53
2022-10-05T04:02:51.713Z,100878.45
2022-10-05T04:05:31.541Z,100875.48
2022-10-05T04:08:10.635Z,100874.54
2022-10-05T04:10:50.570Z,100868.92
2022-10-05T04:13:31.050Z,100866.33
2022-10-05T04:16:09.873Z,100866.52
2022-10-05T04:18:49.813Z,100871.80
2022-10-05T04:21:26.797Z,100871.40
2022-10-05T04:24:05.049Z,100880.47
2022-10-05T04:26:46.247Z,100877.41
2022-10-05T04:29:30.904Z,100882.70
2022-10-05T04:32:28.228Z,100882.66
2022-10-05T04:35:20.968Z,100878.64
2022-10-05T04:38:05.073Z,100885.05
2022-10-05T04:40:52.204Z,100886.75
2022-10-05T04:43:35.658Z,100887.85
2022-10-05T04:46:22.850Z,100890.02
2022-10-05T04:49:21.985Z,100899.58
2022-10-05T04:52:07.925Z,100895.20
2022-10-05T04:54:54.358Z,100885.71
2022-10-05T04:57:36.290Z,100889.98
2022-10-05T05:00:20.827Z,100888.88
2022-10-05T05:03:17.879Z,100894.52
2022-10-05T05:06:16.780Z,100897.35
2022-10-05T05:09:26.708Z,100903.24
2022-10-05T05:12:21.171Z,100906.05
2022-10-05T05:15:17.640Z,100907.02
2022-10-05T05:18:08.400Z,100908.34
2022-10-05T05:20:55.471Z,100911.13
2022-10-05T05:23:35.949Z,100909.85
2022-10-05T05:26:18.759Z,100903.21
2022-10-05T05:29:00.905Z,100910.02
2022-10-05T05:31:45.395Z,100914.79
2022-10-05T05:34:37.310Z,100908.60
2022-10-05T05:37:21.344Z,100912.20
2022-10-05T05:40:05.892Z,100910.00
2022-10-05T05:42:49.100Z,100903.90
2022-10-05T05:45:29.784Z,100897.00
2022-10-05T05:48:11.168Z,100891.59
2022-10-05T05:50:57.774Z,100898.84
2022-10-05T05:53:38.965Z,100908.34
2022-10-05T05:56:15.361Z,100906.47
2022-10-05T05:58:55.858Z,100905.86
2022-10-05T06:01:34.364Z,100905.38
2022-10-05T06:04:18.030Z,100901.81
2022-10-05T06:06:54.345Z,100909.35
2022-10-05T06:09:35.152Z,100903.29
2022-10-05T06:12:30.795Z,100906.23
2022-10-05T06:15:22.966Z,100899.67
2022-10-05T06:17:59.088Z,100908.65
2022-10-05T06:20:41.599Z,100903.94
2022-10-05T06:23:41.689Z,100903.09
2022-10-05T06:26:30.026Z,100897.98
2022-10-05T06:29:03.416Z,100889.95
2022-10-05T06:31:59.271Z,100892.92
2022-10-05T06:34:52.910Z,100891.13
2022-10-05T06:37:40.402Z,100905.81
2022-10-05T06:40:30.531Z,100896.71
2022-10-05T06:43:16.702Z,100892.33
2022-10-05T06:46:20.594Z,100898.02
2022-10-05T06:49:20.564Z,100906.91
2022-10-05T06:52:02.771Z,100910.14
2022-10-05T06:54:49.868Z,100915.20
2022-10-05T06:57:45.010Z,100917.67
2022-10-05T07:00:25.196Z,100919.05
2022-10-05T07:03:06.957Z,100914.90
2022-10-05T07:05:53.716Z,100917.92
2022-10-05T07:08:37.827Z,100917.38
2022-10-05T07:11:25.256Z,100913.45
2022-10-05T07:14:13.219Z,100902.27
2022-10-05T07:17:03.307Z,100911.34
2022-10-05T07:19:47.999Z,100913.18
2022-10-05T07:22:37.496Z,100901.34
2022-10-05T07:25:37.689Z,100895.20
2022-10-05T07:28:15.666Z,100900.41
2022-10-05T07:30:57.035Z,100904.86
2022-10-05T07:33:36.290Z,100901.47
2022-10-05T07:36:45.613Z,100900.70
2022-10-05T07:39:42.062Z,100895.84
2022-10-05T07:42:33.468Z,100892.50
2022-10-05T07:45:19.306Z,100887.18
2022-10-05T07:47:57.238Z,100888.40
2022-10-05T07:50:37.550Z,100887.00
2022-10-05T07:53:18.493Z,100883.90
2022-10-05T07:55:56.521Z,100882.20
2022-10-05T07:58:34.642Z,100878.74
2022-10-05T08:01:19.594Z,100882.25
2022-10-05T08:04:02.919Z,100881.80
2022-10-05T08:06:52.017Z,100881.14
2022-10-05T08:09:43.421Z,100883.36
2022-10-05T08:12:36.480Z,100880.52
2022-10-05T08:15:16.743Z,100877.98
2022-10-05T08:17:57.519Z,100874.34
2022-10-05T08:20:49.461Z,100861.54
2022-10-05T08:23:27.469Z,100859.75
2022-10-05T08:26:23.614Z,100862.19
2022-10-05T08:29:13.759Z,100861.05
2022-10-05T08:31:51.498Z,100852.48
2022-10-05T08:34:32.405Z,100849.33
2022-10-05T08:37:23.198Z,100845.70
2022-10-05T08:40:06.251Z,100851.84
2022-10-05T08:43:08.010Z,100856.03
2022-10-05T08:46:10.728Z,100858.34
2022-10-05T08:49:16.290Z,100858.09
2022-10-05T08:52:14.641Z,100859.34
2022-10-05T08:55:06.157Z,100857.48
2022-10-05T08:58:22.925Z,100852.77
2022-10-05T09:01:03.701Z,100854.77
2022-10-05T09:04:21.960Z,100848.77
2022-10-05T09:07:16.790Z,100842.02
2022-10-05T09:10:43.079Z,100838.07
2022-10-05T09:13:47.149Z,100834.52
2022-10-05T09:16:40.288Z,100832.02
2022-10-05T09:19:50.584Z,100825.02
2022-10-05T09:22:38.642Z,100823.35
2022-10-05T09:25:35.457Z,100815.78
2022-10-05T09:28:25.104Z,100816.66
2022-10-05T09:31:09.763Z,100812.52
2022-10-05T09:34:41.599Z,100808.68
2022-10-05T09:37:35.009Z,100812.36
2022-10-05T09:40:45.097Z,100809.80
2022-10-05T09:43:54.914Z,100808.99
2022-10-05T09:47:03.039Z,100817.98
2022-10-05T09:50:05.974Z,100815.13
2022-10-05T09:53:12.667Z,100818.86
2022-10-05T09:56:05.687Z,100820.86
2022-10-05T09:59:06.171Z,100822.52
2022-10-05T10:01:58.544Z,100816.27
2022-10-05T10:04:45.411Z,100819.95
2022-10-05T10:07:50.989Z,100820.73
2022-10-05T10:10:52.770Z,100826.29
2022-10-05T10:13:57.247Z,100834.67
2022-10-05T10:16:50.087Z,100837.91
2022-10-05T10:20:02.182Z,100837.96
2022-10-05T10:23:25.620Z,100843.98
2022-10-05T10:26:26.998Z,100843.38
2022-10-05T10:29:21.915Z,100838.41
2022-10-05T10:32:21.697Z,100834.59
2022-10-05T10:35:19.201Z,100824.33
2022-10-05T10:38:40.578Z,100816.58
2022-10-05T10:41:54.892Z,100808.54
2022-10-05T10:45:07.245Z,100807.56
2022-10-05T10:47:52.372Z,100796.33
2022-10-05T10:51:01.588Z,100791.38
2022-10-05T10:54:03.041Z,100781.05
2022-10-05T10:56:59.976Z,100774.79
2022-10-05T11:00:15.980Z,100767.71
2022-10-05T11:03:08.995Z,100769.22
2022-10-05T11:06:12.239Z,100767.79
2022-10-05T11:09:11.297Z,100771.38
2022-10-05T11:12:14.171Z,100762.76
2022-10-05T11:15:18.483Z,100759.58
2022-10-05T11:18:07.874Z,100761.13
2022-10-05T11:21:12.677Z,100761.41
2022-10-05T11:24:17.026Z,100763.15
2022-10-05T11:27:12.083Z,100762.11
2022-10-05T11:30:14.618Z,100763.30
2022-10-05T11:33:12.293Z,100761.13
2022-10-05T11:36:10.596Z,100756.15
2022-10-05T11:39:09.333Z,100755.08
2022-10-05T11:42:12.800Z,100756.64
2022-10-05T11:45:23.522Z,100757.24
2022-10-05T11:48:29.859Z,100751.89
2022-10-05T11:51:34.688Z,100747.11
2022-10-05T11:54:52.196Z,100748.90
2022-10-05T11:57:34.518Z,100754.12
2022-10-05T12:00:17.793Z,100754.02
2022-10-05T12:03:23.643Z,100749.46
2022-10-05T12:06:07.981Z,100746.23
2022-10-05T12:08:52.589Z,100749.57
2022-10-05T12:11:48.961Z,100749.66
2022-10-05T12:14:33.883Z,100753.79
2022-10-05T12:17:16.026Z,100751.02
2022-10-05T12:19:55.957Z,100751.10
2022-10-05T12:22:43.464Z,100751.67
2022-10-05T12:25:30.801Z,100748.39
2022-10-05T12:28:10.819Z,100742.95
2022-10-05T12:31:11.850Z,100737.08
2022-10-05T12:33:53.863Z,100741.44
2022-10-05T12:36:52.546Z,100738.73
2022-10-05T12:39:41.071Z,100741.05
2022-10-05T12:42:29.802Z,100743.61
2022-10-05T12:45:25.775Z,100746.17
2022-10-05T12:48:15.893Z,100743.29
2022-10-05T12:50:56.905Z,100744.39
2022-10-05T12:53:49.200Z,100743.40
2022-10-05T12:56:39.051Z,100740.84
2022-10-05T12:59:21.701Z,100738.63
2022-10-05T13:02:30.255Z,100740.02
2022-10-05T13:05:18.499Z,100739.37
2022-10-05T13:08:22.971Z,100740.05
2022-10-05T13:11:03.176Z,100738.41
2022-10-05T13:13:58.102Z,100742.95
2022-10-05T13:16:39.267Z,100740.11
2022-10-05T13:19:40.953Z,100739.81
2022-10-05T13:22:33.698Z,100742.14
2022-10-05T13:25:27.674Z,100740.91
2022-10-05T13:28:16.887Z,100740.08
2022-10-05T13:30:59.934Z,100736.42
2022-10-05T13:33:55.338Z,100737.48
2022-10-05T13:36:40.086Z,100738.51
2022-10-05T13:39:26.471Z,100739.86
2022-10-05T13:42:06.399Z,100740.33
2022-10-05T13:44:50.116Z,100737.66
2022-10-05T13:47:32.482Z,100736.07
2022-10-05T13:50:09.086Z,100737.78
2022-10-05T13:52:57.100Z,100746.81
2022-10-05T13:55:45.411Z,100744.79
2022-10-05T13:58:34.367Z,100747.55
2022-10-05T14:01:10.398Z,100738.78
2022-10-05T14:04:04.378Z,100728.78
2022-10-05T14:06:40.694Z,100725.80
2022-10-05T14:09:29.422Z,100725.42
2022-10-05T14:12:20.760Z,100720.71
2022-10-05T14:14:56.039Z,100716.60
2022-10-05T14:17:44.345Z,100707.30
2022-10-05T14:20:29.100Z,100711.39
2022-10-05T14:23:26.302Z,100709.52
2022-10-05T14:26:04.124Z,100702.92
2022-10-05T14:28:44.052Z,100703.54
2022-10-05T14:31:29.039Z,100700.80
2022-10-05T14:34:27.661Z,100706.19
2022-10-05T14:37:00.344Z,100705.86
2022-10-05T14:39:42.415Z,100708.65
2022-10-05T14:42:21.447Z,100702.27
2022-10-05T14:45:16.680Z,100707.39
2022-10-05T14:47:53.638Z,100708.41
2022-10-05T14:50:30.170Z,100711.21
2022-10-05T14:53:18.670Z,100709.23
2022-10-05T14:56:20.949Z,100711.13
2022-10-05T14:59:10.360Z,100713.00
2022-10-05T15:01:54.189Z,100714.94
2022-10-05T15:04:39.732Z,100710.38
2022-10-05T15:07:24.514Z,100707.65
2022-10-05T15:10:30.505Z,100705.23
2022-10-05T15:13:14.005Z,100693.58
2022-10-05T15:15:56.113Z,100690.73
2022-10-05T15:18:36.662Z,100691.66
2022-10-05T15:21:32.412Z,100689.27
2022-10-05T15:24:28.291Z,100688.73
2022-10-05T15:27:05.527Z,100686.66
2022-10-05T15:29:55.174Z,100688.66
2022-10-05T15:32:45.401Z,100688.71
2022-10-05T15:35:40.632Z,100687.89
2022-10-05T15:38:22.735Z,100679.76
2022-10-05T15:41:06.253Z,100679.98
2022-10-05T15:43:50.657Z,100675.92
2022-10-05T15:46:34.686Z,100672.31
2022-10-05T15:49:25.166Z,100670.34
2022-10-05T15:52:07.656Z,100671.90
2022-10-05T15:55:13.186Z,100673.31
2022-10-05T15:57:55.388Z,100685.52
2022-10-05T16:00:31.765Z,100686.84
2022-10-05T16:03:15.069Z,100673.16
2022-10-05T16:06:10.860Z,100673.49
2022-10-05T16:09:12.432Z,100690.10
2022-10-05T16:12:04.017Z,100684.67
2022-10-05T16:14:49.911Z,100677.65
2022-10-05T16:17:38.279Z,100662.77
2022-10-05T16:20:27.281Z,100655.13
2022-10-05T16:23:10.464Z,100657.27
2022-10-05T16:25:55.702Z,100653.76
2022-10-05T16:28:39.578Z,100639.36
2022-10-05T16:31:19.490Z,100657.27
2022-10-05T16:34:02.303Z,100664.09
2022-10-05T16:36:50.069Z,100650.20
2022-10-05T16:39:48.905Z,100649.11
2022-10-05T16:42:36.811Z,100648.27
2022-10-05T16:45:27.075Z,100648.17
2022-10-05T16:48:10.156Z,100644.99
2022-10-05T16:50:56.272Z,100647.69
2022-10-05T16:53:35.202Z,100646.92
2022-10-05T16:56:16.509Z,100646.70
2022-10-05T16:59:04.512Z,100640.27
2022-10-05T17:01:51.696Z,100640.61
2022-10-05T17:04:38.957Z,100645.39
2022-10-05T17:07:29.880Z,100643.34
2022-10-05T17:10:49.824Z,100645.86
2022-10-05T17:13:40.236Z,100649.65
2022-10-05T17:16:24.153Z,100652.18
2022-10-05T17:19:20.677Z,100652.02
2022-10-05T17:22:00.977Z,100651.84
2022-10-05T17:24:54.433Z,100653.43
2022-10-05T17:27:36.884Z,100655.19
2022-10-05T17:30:40.242Z,100654.52
2022-10-05T17:33:26.688Z,100653.38
2022-10-05T17:36:18.327Z,100648.49
2022-10-05T17:39:12.723Z,100642.73
2022-10-05T17:41:47.141Z,100639.55
2022-10-05T17:44:31.161Z,100635.10
2022-10-05T17:47:09.291Z,100641.08
2022-10-05T17:50:16.818Z,100646.78
2022-10-05T17:53:40.597Z,100642.61
2022-10-05T17:56:14.116Z,100638.77
2022-10-05T17:59:02.380Z,100632.45
2022-10-05T18:01:38.688Z,100631.48
2022-10-05T18:05:02.287Z,100632.73
2022-10-05T18:07:36.829Z,100632.19
2022-10-05T18:10:29.572Z,100634.53
2022-10-05T18:13:22.526Z,100634.98
2022-10-05T18:15:56.039Z,100635.69
2022-10-05T18:19:01.369Z,100634.88
2022-10-05T18:21:39.594Z,100635.15
2022-10-05T18:24:35.320Z,100632.17
2022-10-05T18:27:32.542Z,100624.70
2022-10-05T18:30:21.252Z,100627.90
2022-10-05T18:33:19.932Z,100627.89
2022-10-05T18:36:04.968Z,100627.18
2022-10-05T18:38:51.523Z,100628.11
2022-10-05T18:41:41.798Z,100626.52
2022-10-05T18:44:37.010Z,100624.81
2022-10-05T18:47:20.171Z,100628.00
2022-10-05T18:50:04.926Z,100628.27
2022-10-05T18:52:59.348Z,100633.59
2022-10-05T18:55:41.477Z,100632.73
2022-10-05T18:58:22.807Z,100629.71
2022-10-05T19:01:27.654Z,100633.27
2022-10-05T19:04:18.339Z,100633.21
2022-10-05T19:06:59.497Z,100628.39
2022-10-05T19:09:53.229Z,100623.61
2022-10-05T19:12:41.361Z,100621.21
2022-10-05T19:15:19.283Z,100619.07
2022-10-05T19:18:07.579Z,100623.83
2022-10-05T19:20:50.773Z,100620.21
2022-10-05T19:23:47.016Z,100618.35
2022-10-05T19:26:32.790Z,100616.70
2022-10-05T19:29:23.115Z,100618.63
2022-10-05T19:32:03.125Z,100619.28
2022-10-05T19:34:50.461Z,100619.61
2022-10-05T19:37:32.740Z,100615.61
2022-10-05T19:40:16.845Z,100616.38
2022-10-05T19:43:03.436Z,100618.29
2022-10-05T19:45:41.071Z,100624.27
2022-10-05T19:48:28.514Z,100625.80
2022-10-05T19:51:28.325Z,100625.13
2022-10-05T19:54:15.822Z,100626.46
2022-10-05T19:56:53.822Z,100630.02
2022-10-05T19:59:31.726Z,100629.84
2022-10-05T20:02:05.743Z,100625.63
2022-10-05T20:04:41.241Z,100628.08
2022-10-05T20:07:22.755Z,100629.27
2022-10-05T20:09:59.815Z,100633.77
2022-10-05T20:12:59.695Z,100638.38
2022-10-05T20:15:53.328Z,100638.86
2022-10-05T20:19:08.163Z,100640.67
2022-10-05T20:21:50.851Z,100639.66
2022-10-05T20:24:25.979Z,100639.30
2022-10-05T20:27:06.483Z,100638.92
2022-10-05T20:29:42.678Z,100640.44
2022-10-05T20:32:18.364Z,100647.80
2022-10-05T20:34:56.070Z,100640.49
2022-10-05T20:37:29.483Z,100645.76
2022-10-05T20:40:03.479Z,100643.73
2022-10-05T20:42:37.876Z,100645.70
2022-10-05T20:45:14.509Z,100649.20
2022-10-05T20:47:48.212Z,100647.31
2022-10-05T20:50:22.540Z,100640.90
2022-10-05T20:53:09.628Z,100641.84
2022-10-05T20:55:45.172Z,100649.23
2022-10-05T20:58:19.627Z,100646.05
2022-10-05T21:01:10.750Z,100651.56
2022-10-05T21:03:44.286Z,100654.73
2022-10-05T21:06:18.713Z,100656.70
2022-10-05T21:09:02.997Z,100660.09
2022-10-05T21:11:36.744Z,100657.30
2022-10-05T21:14:10.413Z,100659.71
2022-10-05T21:16:46.085Z,100663.56
2022-10-05T21:19:19.744Z,100664.83
2022-10-05T21:21:54.650Z,100669.43
2022-10-05T21:24:28.781Z,100668.29
2022-10-05T21:27:02.258Z,100669.40
2022-10-05T21:29:36.850Z,100674.16
2022-10-05T21:32:13.403Z,100672.35
2022-10-05T21:34:47.084Z,100670.64
2022-10-05T21:37:21.043Z,100674.17
2022-10-05T21:39:54.625Z,100672.03
2022-10-05T21:42:28.102Z,100675.75
2022-10-05T21:45:01.642Z,100681.09
2022-10-05T21:47:35.286Z,100678.06
2022-10-05T21:50:10.662Z,100677.77
2022-10-05T21:52:44.180Z,100676.79
2022-10-05T21:55:18.743Z,100676.89
2022-10-05T21:57:52.837Z,100680.44
2022-10-05T22:00:26.385Z,100678.64
2022-10-05T22:03:00.104Z,100680.02
2022-10-05T22:05:34.061Z,100679.58
2022-10-05T22:08:08.169Z,100678.50
2022-10-05T22:10:41.553Z,100676.93
2022-10-05T22:13:14.793Z,100674.86
2022-10-05T22:15:48.315Z,100677.77
2022-10-05T22:18:22.323Z,100677.78
2022-10-05T22:20:55.865Z,100678.08
2022-10-05T22:23:29.462Z,100675.58
2022-10-05T22:26:03.279Z,100676.94
2022-10-05T22:28:38.893Z,100669.54
2022-10-05T22:31:13.648Z,100670.95
2022-10-05T22:33:47.382Z,100672.30
2022-10-05T22:36:21.060Z,100673.39
2022-10-05T22:38:55.171Z,100670.91
2022-10-05T22:41:28.800Z,100666.90
2022-10-05T22:44:03.123Z,100668.41
2022-10-05T22:46:36.611Z,100671.60
2022-10-05T22:49:09.863Z,100674.10
2022-10-05T22:51:43.538Z,100675.35
2022-10-05T22:54:17.262Z,100675.89
2022-10-05T22:56:50.935Z,100679.54
2022-10-05T22:59:26.247Z,100679.12
2022-10-05T23:01:59.572Z,100680.36
2022-10-05T23:04:33.258Z,100685.48
2022-10-05T23:07:07.172Z,100682.70
2022-10-05T23:09:40.697Z,100680.66
2022-10-05T23:12:15.328Z,100688.23
2022-10-05T23:14:48.879Z,100690.02
2022-10-05T23:17:25.253Z,100685.09
2022-10-05T23:19:58.793Z,100688.48
2022-10-05T23:22:32.594Z,100691.05
2022-10-05T23:25:06.249Z,100695.79
2022-10-05T23:27:44.555Z,100700.25
2022-10-05T23:30:18.258Z,100702.52
2022-10-05T23:32:52.585Z,100709.65
2022-10-05T23:35:26.104Z,100706.42
2022-10-05T23:37:59.649Z,100703.29
2022-10-05T23:40:33.391Z,100705.45
2022-10-05T23:43:07.073Z,100704.86
2022-10-05T23:45:49.895Z,100703.76
2022-10-05T23:48:27.545Z,100701.15
2022-10-05T23:51:02.280Z,100700.54
2022-10-05T23:53:35.949Z,100699.64
2022-10-05T23:56:18.670Z,100696.59
2022-10-05T23:58:55.239Z,100699.73
